createdAt,value
2023-04-10T00:00:23.880Z,7.30
2023-04-10T00:02:50.891Z,6.53
2023-04-10T00:05:17.746Z,7.67
2023-04-10T00:07:44.430Z,7.10
2023-04-10T00:10:11.176Z,7.73
2023-04-10T00:12:38.029Z,7.13
2023-04-10T00:15:05.351Z,8.03
2023-04-10T00:17:32.106Z,7.13
2023-04-10T00:19:59.468Z,6.70
2023-04-10T00:22:26.570Z,6.70
2023-04-10T00:24:53.720Z,6.60
2023-04-10T00:27:20.459Z,8.60
2023-04-10T00:29:47.173Z,6.50
2023-04-10T00:32:14.002Z,7.60
2023-04-10T00:34:40.750Z,8.00
2023-04-10T00:37:07.477Z,7.13
2023-04-10T00:39:34.213Z,6.87
2023-04-10T00:42:02.315Z,6.57
2023-04-10T00:44:29.209Z,7.50
2023-04-10T00:46:56.045Z,7.43
2023-04-10T00:49:22.800Z,6.83
2023-04-10T00:51:49.695Z,11.43
2023-04-10T00:54:16.777Z,7.90
2023-04-10T00:56:44.816Z,7.40
2023-04-10T00:59:11.571Z,8.83
2023-04-10T01:01:38.569Z,7.20
2023-04-10T01:04:05.962Z,8.33
2023-04-10T01:06:46.127Z,10.23
2023-04-10T01:09:31.149Z,6.80
2023-04-10T01:12:11.562Z,7.43
2023-04-10T01:14:49.158Z,7.63
2023-04-10T01:17:28.341Z,6.33
2023-04-10T01:20:04.402Z,7.13
2023-04-10T01:22:38.020Z,6.93
2023-04-10T01:25:50.634Z,7.07
2023-04-10T01:28:20.475Z,6.87
2023-04-10T01:30:50.620Z,7.30
2023-04-10T01:33:20.611Z,6.83
2023-04-10T01:35:52.446Z,6.80
2023-04-10T01:38:21.366Z,6.33
2023-04-10T01:40:52.615Z,7.10
2023-04-10T01:43:32.086Z,7.00
2023-04-10T01:46:00.034Z,7.50
2023-04-10T01:48:28.077Z,7.07
2023-04-10T01:50:56.759Z,6.97
2023-04-10T01:53:24.580Z,6.33
2023-04-10T01:55:53.570Z,7.03
2023-04-10T01:58:20.594Z,6.40
2023-04-10T02:00:47.756Z,6.53
2023-04-10T02:03:16.075Z,6.67
2023-04-10T02:06:02.421Z,6.27
2023-04-10T02:08:42.555Z,7.83
2023-04-10T02:11:15.352Z,6.87
2023-04-10T02:13:42.869Z,6.20
2023-04-10T02:16:12.733Z,6.70
2023-04-10T02:18:42.141Z,6.87
2023-04-10T02:21:09.122Z,7.37
2023-04-10T02:23:36.974Z,6.53
2023-04-10T02:26:09.969Z,6.57
2023-04-10T02:28:40.235Z,6.77
2023-04-10T02:31:07.408Z,7.03
2023-04-10T02:33:34.119Z,7.97
2023-04-10T02:36:02.268Z,7.57
2023-04-10T02:38:29.083Z,7.47
2023-04-10T02:40:56.099Z,7.00
2023-04-10T02:43:23.149Z,6.60
2023-04-10T02:45:50.163Z,7.13
2023-04-10T02:48:23.323Z,6.80
2023-04-10T02:50:58.741Z,6.27
2023-04-10T02:53:26.957Z,6.53
2023-04-10T02:55:57.357Z,6.70
2023-04-10T02:58:24.273Z,6.63
2023-04-10T03:00:54.105Z,7.30
2023-04-10T03:03:34.310Z,7.57
2023-04-10T03:06:01.184Z,8.43
2023-04-10T03:08:31.521Z,7.37
2023-04-10T03:10:58.527Z,7.87
2023-04-10T03:13:25.525Z,6.97
2023-04-10T03:15:52.618Z,7.07
2023-04-10T03:18:19.994Z,8.00
2023-04-10T03:20:49.683Z,7.67
2023-04-10T03:23:19.264Z,8.47
2023-04-10T03:25:49.792Z,7.97
2023-04-10T03:28:17.822Z,7.73
2023-04-10T03:30:44.564Z,8.30
2023-04-10T03:33:11.369Z,7.73
2023-04-10T03:35:38.048Z,7.53
2023-04-10T03:38:07.049Z,7.43
2023-04-10T03:40:34.398Z,7.83
2023-04-10T03:43:01.240Z,7.40
2023-04-10T03:45:30.750Z,7.30
2023-04-10T03:47:59.998Z,7.77
2023-04-10T03:50:31.955Z,7.50
2023-04-10T03:53:01.120Z,7.87
2023-04-10T03:55:28.069Z,7.37
2023-04-10T03:57:55.281Z,7.97
2023-04-10T04:00:24.587Z,7.27
2023-04-10T04:03:01.020Z,6.73
2023-04-10T04:05:46.219Z,7.93
2023-04-10T04:08:31.516Z,7.23
2023-04-10T04:11:07.243Z,7.23
2023-04-10T04:13:46.694Z,7.00
2023-04-10T04:16:31.798Z,6.90
2023-04-10T04:19:22.607Z,7.70
2023-04-10T04:22:24.431Z,7.43
2023-04-10T04:25:24.134Z,7.70
2023-04-10T04:28:16.039Z,7.17
2023-04-10T04:31:00.809Z,6.80
2023-04-10T04:33:49.728Z,7.47
2023-04-10T04:36:31.401Z,7.60
2023-04-10T04:39:18.360Z,7.43
2023-04-10T04:42:00.043Z,6.93
2023-04-10T04:44:45.854Z,6.83
2023-04-10T04:47:21.585Z,6.83
2023-04-10T04:49:58.859Z,7.57
2023-04-10T04:52:45.560Z,6.87
2023-04-10T04:55:24.851Z,7.53
2023-04-10T04:57:54.348Z,8.30
2023-04-10T05:00:41.208Z,7.93
2023-04-10T05:03:20.396Z,7.90
2023-04-10T05:06:02.191Z,7.30
2023-04-10T05:08:46.464Z,7.90
2023-04-10T05:11:29.699Z,7.83
2023-04-10T05:14:18.634Z,8.20
2023-04-10T05:17:03.883Z,7.97
2023-04-10T05:19:49.118Z,9.20
2023-04-10T05:22:35.379Z,7.60
2023-04-10T05:25:16.634Z,8.63
2023-04-10T05:28:03.619Z,7.47
2023-04-10T05:30:52.281Z,8.50
2023-04-10T05:33:46.979Z,7.53
2023-04-10T05:36:33.382Z,8.27
2023-04-10T05:39:18.498Z,8.90
2023-04-10T05:42:03.896Z,7.73
2023-04-10T05:44:45.611Z,8.47
2023-04-10T05:47:30.970Z,8.47
2023-04-10T05:50:16.376Z,8.73
2023-04-10T05:53:14.406Z,8.23
2023-04-10T05:55:45.152Z,9.13
2023-04-10T05:58:40.340Z,8.70
2023-04-10T06:01:18.085Z,9.43
2023-04-10T06:03:47.519Z,8.60
2023-04-10T06:06:16.373Z,8.90
2023-04-10T06:08:43.306Z,9.57
2023-04-10T06:11:10.592Z,8.97
2023-04-10T06:13:37.519Z,8.47
2023-04-10T06:16:04.596Z,8.77
2023-04-10T06:18:32.856Z,8.43
2023-04-10T06:21:01.878Z,8.73
2023-04-10T06:23:28.792Z,8.07
2023-04-10T06:25:56.063Z,9.23
2023-04-10T06:28:22.802Z,9.07
2023-04-10T06:30:54.289Z,9.17
2023-04-10T06:33:28.969Z,8.90
2023-04-10T06:35:55.926Z,8.83
2023-04-10T06:38:23.228Z,8.90
2023-04-10T06:40:50.402Z,7.90
2023-04-10T06:43:17.169Z,8.90
2023-04-10T06:45:43.813Z,9.40
2023-04-10T06:48:10.440Z,9.47
2023-04-10T06:50:37.064Z,8.43
2023-04-10T06:53:03.697Z,9.90
2023-04-10T06:55:30.725Z,9.20
2023-04-10T06:57:57.365Z,9.83
2023-04-10T07:00:49.122Z,11.43
2023-04-10T07:03:15.869Z,9.00
2023-04-10T07:05:42.599Z,10.00
2023-04-10T07:08:09.249Z,14.83
2023-04-10T07:10:36.236Z,7.33
2023-04-10T07:13:03.036Z,7.77
2023-04-10T07:15:29.671Z,6.77
2023-04-10T07:17:56.413Z,4.83
2023-04-10T07:20:23.160Z,5.60
2023-04-10T07:22:49.841Z,7.00
2023-04-10T07:25:18.304Z,6.53
2023-04-10T07:27:44.949Z,5.93
2023-04-10T07:30:13.559Z,4.97
2023-04-10T07:32:42.244Z,5.00
2023-04-10T07:35:09.774Z,4.63
2023-04-10T07:37:36.576Z,4.80
2023-04-10T07:40:03.670Z,6.90
2023-04-10T07:42:30.392Z,4.93
2023-04-10T07:44:57.448Z,5.70
2023-04-10T07:47:24.501Z,5.37
2023-04-10T07:49:51.315Z,5.27
2023-04-10T07:52:18.049Z,5.23
2023-04-10T07:54:44.652Z,5.23
2023-04-10T07:57:11.312Z,4.60
2023-04-10T07:59:37.946Z,5.07
2023-04-10T08:02:04.816Z,5.30
2023-04-10T08:04:31.759Z,6.10
2023-04-10T08:06:58.629Z,5.90
2023-04-10T08:09:25.464Z,5.40
2023-04-10T08:11:52.190Z,5.93
2023-04-10T08:14:18.888Z,4.57
2023-04-10T08:16:45.863Z,4.60
2023-04-10T08:19:12.695Z,5.33
2023-04-10T08:21:39.517Z,5.87
2023-04-10T08:24:06.362Z,5.80
2023-04-10T08:26:33.178Z,4.73
2023-04-10T08:29:00.817Z,4.83
2023-04-10T08:31:28.809Z,6.00
2023-04-10T08:33:56.555Z,6.10
2023-04-10T08:36:23.959Z,5.33
2023-04-10T08:38:50.704Z,5.63
2023-04-10T08:41:19.562Z,5.50
2023-04-10T08:43:46.716Z,5.83
2023-04-10T08:46:14.697Z,5.13
2023-04-10T08:48:53.271Z,4.80
2023-04-10T08:51:26.355Z,5.90
2023-04-10T08:53:58.701Z,5.47
2023-04-10T08:56:26.376Z,5.50
2023-04-10T08:58:53.389Z,5.07
2023-04-10T09:01:21.481Z,5.63
2023-04-10T09:03:49.012Z,4.97
2023-04-10T09:06:15.816Z,4.47
2023-04-10T09:08:42.581Z,5.03
2023-04-10T09:11:09.395Z,4.83
2023-04-10T09:13:41.103Z,5.30
2023-04-10T09:16:09.543Z,5.17
2023-04-10T09:18:43.444Z,4.97
2023-04-10T09:21:11.888Z,4.57
2023-04-10T09:23:38.966Z,4.27
2023-04-10T09:26:23.259Z,5.67
2023-04-10T09:29:19.205Z,3.80
2023-04-10T09:31:45.963Z,4.53
2023-04-10T09:34:22.220Z,4.50
2023-04-10T09:36:57.958Z,4.30
2023-04-10T09:39:34.860Z,4.63
2023-04-10T09:42:01.755Z,4.43
2023-04-10T09:44:31.713Z,5.03
2023-04-10T09:46:59.370Z,4.37
2023-04-10T09:49:26.103Z,3.63
2023-04-10T09:51:53.076Z,4.70
2023-04-10T09:54:35.934Z,4.83
2023-04-10T09:57:04.307Z,5.97
2023-04-10T09:59:31.517Z,5.60
2023-04-10T10:01:58.705Z,4.90
2023-04-10T10:04:26.783Z,5.00
2023-04-10T10:06:53.824Z,4.43
2023-04-10T10:09:21.125Z,4.13
2023-04-10T10:11:50.539Z,4.00
2023-04-10T10:14:21.482Z,4.33
2023-04-10T10:16:52.557Z,3.93
2023-04-10T10:19:31.308Z,3.73
2023-04-10T10:22:01.221Z,3.93
2023-04-10T10:24:29.815Z,4.00
2023-04-10T10:26:59.444Z,4.00
2023-04-10T10:29:28.585Z,3.80
2023-04-10T10:31:56.559Z,23.17
2023-04-10T10:34:23.350Z,7.50
2023-04-10T10:36:50.407Z,4.53
2023-04-10T10:39:53.138Z,5.53
2023-04-10T10:42:33.365Z,3.77
2023-04-10T10:45:12.348Z,4.10
2023-04-10T10:47:44.769Z,18.37
2023-04-10T10:50:11.589Z,24.03
2023-04-10T10:52:54.091Z,10.53
2023-04-10T10:55:31.603Z,11.00
2023-04-10T10:58:01.128Z,4.67
2023-04-10T11:00:50.739Z,4.00
2023-04-10T11:03:17.521Z,3.47
2023-04-10T11:06:06.376Z,3.70
2023-04-10T11:08:35.803Z,3.80
2023-04-10T11:11:07.254Z,4.70
2023-04-10T11:13:59.693Z,3.37
2023-04-10T11:16:40.800Z,3.80
2023-04-10T11:19:16.470Z,4.00
2023-04-10T11:21:59.367Z,3.80
2023-04-10T11:24:26.632Z,3.60
2023-04-10T11:26:53.240Z,3.40
2023-04-10T11:29:28.734Z,3.50
2023-04-10T11:32:05.833Z,3.40
2023-04-10T11:34:33.237Z,3.60
2023-04-10T11:37:02.971Z,3.20
2023-04-10T11:39:30.716Z,3.70
2023-04-10T11:41:57.698Z,3.37
2023-04-10T11:44:35.092Z,3.57
2023-04-10T11:47:01.808Z,3.40
2023-04-10T11:49:31.667Z,3.10
2023-04-10T11:51:59.094Z,3.20
2023-04-10T11:54:27.443Z,3.50
2023-04-10T11:57:06.433Z,2.90
2023-04-10T11:59:33.985Z,2.90
2023-04-10T12:02:15.018Z,2.97
2023-04-10T12:04:43.650Z,3.00
2023-04-10T12:07:10.992Z,3.10
2023-04-10T12:09:37.628Z,3.40
2023-04-10T12:12:06.571Z,7.23
2023-04-10T12:14:42.680Z,16.80
2023-04-10T12:17:11.533Z,12.47
2023-04-10T12:19:39.452Z,5.90
2023-04-10T12:22:06.702Z,6.53
2023-04-10T12:24:47.458Z,5.13
2023-04-10T12:27:21.013Z,6.03
2023-04-10T12:29:49.425Z,3.23
2023-04-10T12:32:16.538Z,3.67
2023-04-10T12:34:50.592Z,3.80
2023-04-10T12:37:17.456Z,11.87
2023-04-10T12:39:44.135Z,5.77
2023-04-10T12:42:20.597Z,6.63
2023-04-10T12:44:55.040Z,4.40
2023-04-10T12:47:23.000Z,2.87
2023-04-10T12:50:10.836Z,6.93
2023-04-10T12:52:40.794Z,5.77
2023-04-10T12:55:23.662Z,5.43
2023-04-10T12:57:51.879Z,3.40
2023-04-10T13:00:19.814Z,3.37
2023-04-10T13:02:48.505Z,3.77
2023-04-10T13:05:15.683Z,2.93
2023-04-10T13:07:42.608Z,6.20
2023-04-10T13:10:09.713Z,4.03
2023-04-10T13:12:37.893Z,3.03
2023-04-10T13:15:05.213Z,3.00
2023-04-10T13:17:31.912Z,3.23
2023-04-10T13:19:58.523Z,3.50
2023-04-10T13:22:25.219Z,2.73
2023-04-10T13:24:51.797Z,2.53
2023-04-10T13:27:18.390Z,3.83
2023-04-10T13:29:45.020Z,3.40
2023-04-10T13:32:11.648Z,3.60
2023-04-10T13:34:38.239Z,8.67
2023-04-10T13:37:04.840Z,3.20
2023-04-10T13:39:32.010Z,4.17
2023-04-10T13:41:59.381Z,3.70
2023-04-10T13:44:26.110Z,4.77
2023-04-10T13:46:53.182Z,3.60
2023-04-10T13:49:21.858Z,3.70
2023-04-10T13:51:48.576Z,5.23
2023-04-10T13:54:17.225Z,6.17
2023-04-10T13:56:46.410Z,3.90
2023-04-10T13:59:13.408Z,3.07
2023-04-10T14:01:40.071Z,6.63
2023-04-10T14:04:07.043Z,2.80
2023-04-10T14:06:35.064Z,4.33
2023-04-10T14:09:01.807Z,9.50
2023-04-10T14:11:28.495Z,3.20
2023-04-10T14:13:55.378Z,8.17
2023-04-10T14:16:22.042Z,7.60
2023-04-10T14:18:48.647Z,11.73
2023-04-10T14:21:15.391Z,4.23
2023-04-10T14:23:42.944Z,5.63
2023-04-10T14:26:09.621Z,2.70
2023-04-10T14:28:36.537Z,3.70
2023-04-10T14:31:04.897Z,3.10
2023-04-10T14:33:31.766Z,3.63
2023-04-10T14:35:58.449Z,3.23
2023-04-10T14:38:25.077Z,2.73
2023-04-10T14:40:51.860Z,3.20
2023-04-10T14:43:19.515Z,3.40
2023-04-10T14:45:46.354Z,2.37
2023-04-10T14:48:13.437Z,2.57
2023-04-10T14:50:40.781Z,3.10
2023-04-10T14:53:09.804Z,3.40
2023-04-10T14:55:37.268Z,3.37
2023-04-10T14:58:04.486Z,2.67
2023-04-10T15:00:32.152Z,2.83
2023-04-10T15:02:59.104Z,2.53
2023-04-10T15:05:27.119Z,2.73
2023-04-10T15:07:54.399Z,2.77
2023-04-10T15:10:21.169Z,3.22
2023-04-10T15:12:47.888Z,2.90
2023-04-10T15:15:14.494Z,2.50
2023-04-10T15:17:41.315Z,2.30
2023-04-10T15:20:08.453Z,2.77
2023-04-10T15:22:35.770Z,3.40
2023-04-10T15:25:02.725Z,2.50
2023-04-10T15:27:30.533Z,2.83
2023-04-10T15:29:57.393Z,2.73
2023-04-10T15:32:24.108Z,2.53
2023-04-10T15:34:50.794Z,2.80
2023-04-10T15:37:17.436Z,2.40
2023-04-10T15:39:44.170Z,2.40
2023-04-10T15:42:11.052Z,2.27
2023-04-10T15:44:37.725Z,2.90
2023-04-10T15:47:04.401Z,2.73
2023-04-10T15:49:37.925Z,2.67
2023-04-10T15:52:08.576Z,3.00
2023-04-10T15:54:35.591Z,2.20
2023-04-10T15:57:03.365Z,2.30
2023-04-10T15:59:30.042Z,2.40
2023-04-10T16:01:56.913Z,2.50
2023-04-10T16:04:23.891Z,3.50
2023-04-10T16:06:50.804Z,3.80
2023-04-10T16:09:25.387Z,3.00
2023-04-10T16:11:54.141Z,4.37
2023-04-10T16:14:20.794Z,6.87
2023-04-10T16:16:47.478Z,3.83
2023-04-10T16:19:14.128Z,3.40
2023-04-10T16:21:40.803Z,9.07
2023-04-10T16:24:07.555Z,2.70
2023-04-10T16:26:34.206Z,2.70
2023-04-10T16:29:00.974Z,3.03
2023-04-10T16:31:27.711Z,3.57
2023-04-10T16:33:54.384Z,2.63
2023-04-10T16:36:20.964Z,2.80
2023-04-10T16:38:49.865Z,2.77
2023-04-10T16:41:20.786Z,2.87
2023-04-10T16:43:47.864Z,3.10
2023-04-10T16:46:14.965Z,2.50
2023-04-10T16:48:41.933Z,2.43
2023-04-10T16:51:15.852Z,3.00
2023-04-10T16:53:42.541Z,2.67
2023-04-10T16:56:09.473Z,2.87
2023-04-10T16:58:37.561Z,3.20
2023-04-10T17:01:21.475Z,2.80
2023-04-10T17:03:48.673Z,5.20
2023-04-10T17:06:16.087Z,3.03
2023-04-10T17:08:43.540Z,2.50
2023-04-10T17:11:12.499Z,2.80
2023-04-10T17:13:40.434Z,2.60
2023-04-10T17:16:08.041Z,3.03
2023-04-10T17:18:34.776Z,2.60
2023-04-10T17:21:01.409Z,2.63
2023-04-10T17:23:28.218Z,2.73
2023-04-10T17:25:54.942Z,2.60
2023-04-10T17:28:21.664Z,3.03
2023-04-10T17:30:48.371Z,2.67
2023-04-10T17:33:15.011Z,3.37
2023-04-10T17:35:42.104Z,2.80
2023-04-10T17:38:08.903Z,2.37
2023-04-10T17:40:37.111Z,4.00
2023-04-10T17:43:04.029Z,3.33
2023-04-10T17:45:30.664Z,3.67
2023-04-10T17:47:57.354Z,3.13
2023-04-10T17:50:24.098Z,3.23
2023-04-10T17:52:51.030Z,3.47
2023-04-10T17:55:20.412Z,3.10
2023-04-10T17:57:48.160Z,3.13
2023-04-10T18:00:15.888Z,2.43
2023-04-10T18:02:43.159Z,3.30
2023-04-10T18:05:10.146Z,2.60
2023-04-10T18:07:39.887Z,2.67
2023-04-10T18:10:09.812Z,2.43
2023-04-10T18:12:37.804Z,3.10
2023-04-10T18:15:05.142Z,3.10
2023-04-10T18:17:31.890Z,3.60
2023-04-10T18:19:58.617Z,4.13
2023-04-10T18:22:25.470Z,4.17
2023-04-10T18:24:52.242Z,3.80
2023-04-10T18:27:19.003Z,4.60
2023-04-10T18:29:45.785Z,4.37
2023-04-10T18:32:12.738Z,3.03
2023-04-10T18:34:39.570Z,3.27
2023-04-10T18:37:08.244Z,3.30
2023-04-10T18:39:38.050Z,3.40
2023-04-10T18:42:10.581Z,3.60
2023-04-10T18:44:37.490Z,3.67
2023-04-10T18:47:05.235Z,4.80
2023-04-10T18:49:32.213Z,3.40
2023-04-10T18:51:58.854Z,3.87
2023-04-10T18:54:28.476Z,3.87
2023-04-10T18:56:56.558Z,4.30
2023-04-10T18:59:23.373Z,3.97
2023-04-10T19:01:50.290Z,3.67
2023-04-10T19:04:17.068Z,3.77
2023-04-10T19:06:46.066Z,3.43
2023-04-10T19:09:13.460Z,3.77
2023-04-10T19:11:40.491Z,3.03
2023-04-10T19:14:07.171Z,3.00
2023-04-10T19:19:05.644Z,3.60
2023-04-10T19:21:32.408Z,3.20
2023-04-10T19:23:59.099Z,2.93
2023-04-10T19:26:25.825Z,3.13
2023-04-10T19:28:52.754Z,10.17
2023-04-10T19:31:19.819Z,7.87
2023-04-10T19:33:46.595Z,7.00
2023-04-10T19:36:15.597Z,5.00
2023-04-10T19:38:44.422Z,4.97
2023-04-10T19:41:17.904Z,5.73
2023-04-10T19:43:44.686Z,12.13
2023-04-10T19:46:21.003Z,6.40
2023-04-10T19:48:49.048Z,5.93
2023-04-10T19:51:15.898Z,5.13
2023-04-10T19:53:42.564Z,4.10
2023-04-10T19:56:09.532Z,18.13
2023-04-10T19:58:40.969Z,5.30
2023-04-10T20:01:08.969Z,4.60
2023-04-10T20:03:36.731Z,10.87
2023-04-10T20:06:04.572Z,3.03
2023-04-10T20:08:31.198Z,3.10
2023-04-10T20:10:58.412Z,3.10
2023-04-10T20:13:25.661Z,2.97
2023-04-10T20:15:52.519Z,2.80
2023-04-10T20:18:19.209Z,4.43
2023-04-10T20:20:46.978Z,2.70
2023-04-10T20:23:14.066Z,4.60
2023-04-10T20:25:40.728Z,3.43
2023-04-10T20:28:07.466Z,2.70
2023-04-10T20:30:35.832Z,2.73
2023-04-10T20:33:02.531Z,2.90
2023-04-10T20:35:29.186Z,2.57
2023-04-10T20:37:55.996Z,2.40
2023-04-10T20:40:22.716Z,2.27
2023-04-10T20:42:49.458Z,3.23
2023-04-10T20:45:16.316Z,2.43
2023-04-10T20:47:43.144Z,2.57
2023-04-10T20:50:11.498Z,3.90
2023-04-10T20:52:39.880Z,4.60
2023-04-10T20:55:06.925Z,3.60
2023-04-10T20:57:34.088Z,6.03
2023-04-10T21:00:00.844Z,3.57
2023-04-10T21:02:30.184Z,3.87
2023-04-10T21:04:57.118Z,3.47
2023-04-10T21:07:23.823Z,4.17
2023-04-10T21:09:50.465Z,3.83
2023-04-10T21:12:17.129Z,3.10
2023-04-10T21:14:43.782Z,7.57
2023-04-10T21:17:10.553Z,3.93
2023-04-10T21:19:37.219Z,3.00
2023-04-10T21:22:04.006Z,2.77
2023-04-10T21:24:30.830Z,2.77
2023-04-10T21:26:57.633Z,2.77
2023-04-10T21:29:24.468Z,3.20
2023-04-10T21:31:51.178Z,3.33
2023-04-10T21:34:17.893Z,2.70
2023-04-10T21:36:44.490Z,2.50
2023-04-10T21:39:11.209Z,4.60
2023-04-10T21:41:38.947Z,2.23
2023-04-10T21:44:06.579Z,2.23
2023-04-10T21:46:33.676Z,2.53
2023-04-10T21:49:01.072Z,2.10
2023-04-10T21:51:28.266Z,2.20
2023-04-10T21:53:55.174Z,2.37
2023-04-10T21:56:21.948Z,2.30
2023-04-10T21:58:48.819Z,2.37
2023-04-10T22:01:15.764Z,3.10
2023-04-10T22:03:42.550Z,3.40
2023-04-10T22:06:09.895Z,4.80
2023-04-10T22:08:38.474Z,5.17
2023-04-10T22:11:05.926Z,8.37
2023-04-10T22:13:32.850Z,17.67
2023-04-10T22:16:03.476Z,17.23
2023-04-10T22:18:30.314Z,9.33
2023-04-10T22:20:57.203Z,5.20
2023-04-10T22:23:24.166Z,8.27
2023-04-10T22:25:50.883Z,10.77
2023-04-10T22:28:17.635Z,7.33
2023-04-10T22:30:44.452Z,7.33
2023-04-10T22:33:11.957Z,7.07
2023-04-10T22:35:38.664Z,4.93
2023-04-10T22:38:05.510Z,4.67
2023-04-10T22:40:32.373Z,4.60
2023-04-10T22:42:59.009Z,3.33
2023-04-10T22:45:25.785Z,5.80
2023-04-10T22:47:52.482Z,8.83
2023-04-10T22:50:19.342Z,3.70
2023-04-10T22:52:46.015Z,3.13
2023-04-10T22:55:12.865Z,3.30
2023-04-10T22:57:39.513Z,3.10
2023-04-10T23:00:06.957Z,3.00
2023-04-10T23:02:33.798Z,2.93
2023-04-10T23:05:00.631Z,2.73
2023-04-10T23:07:27.930Z,3.20
2023-04-10T23:09:54.651Z,3.20
2023-04-10T23:12:21.350Z,2.73
2023-04-10T23:14:48.021Z,3.23
2023-04-10T23:17:14.857Z,3.27
2023-04-10T23:19:41.478Z,3.30
2023-04-10T23:22:08.176Z,2.70
2023-04-10T23:24:34.921Z,2.70
2023-04-10T23:27:01.580Z,2.77
2023-04-10T23:29:28.179Z,2.80
2023-04-10T23:31:54.871Z,2.67
2023-04-10T23:34:21.613Z,3.20
2023-04-10T23:36:48.288Z,2.40
2023-04-10T23:39:15.433Z,2.67
2023-04-10T23:41:42.426Z,2.50
2023-04-10T23:44:09.540Z,2.67
2023-04-10T23:46:36.280Z,2.90
2023-04-10T23:49:02.962Z,2.50
2023-04-10T23:51:31.822Z,2.53
2023-04-10T23:53:58.977Z,2.73
2023-04-10T23:56:29.155Z,3.27
2023-04-10T23:58:56.506Z,2.33
